Time;durP1;ratioP1;P1;durP2;ratioP2;P2;SDS_P1;SDS_P2;PMS_P1;PMS_P2;Temp;Humidity;BMP_temperature;BMP_pressure;BME280_temperature;BME280_humidity;BME280_pressure;Samples;Min_cycle;Max_cycle;Signal;HPM_P1;HPM_P2
2022/01/09 00:00:32;;;;;;;9.53;2.90;;;26.30;71.70;;;;;;5072430;28;20168;-78
2022/01/09 00:03:00;;;;;;;9.13;2.77;;;26.30;71.20;;;;;;5072075;28;20258;-80
2022/01/09 00:05:27;;;;;;;9.77;2.90;;;26.60;69.90;;;;;;5075346;28;20175;-76
2022/01/09 00:07:55;;;;;;;7.60;2.60;;;26.50;70.00;;;;;;5070546;28;20183;-82
2022/01/09 00:10:23;;;;;;;13.83;2.93;;;26.40;70.30;;;;;;5072649;28;20515;-77
2022/01/09 00:12:51;;;;;;;13.80;2.80;;;25.90;71.30;;;;;;5074309;28;20686;-85
2022/01/09 00:15:18;;;;;;;12.20;3.07;;;25.60;72.40;;;;;;5072516;28;20641;-81
2022/01/09 00:17:46;;;;;;;8.73;3.03;;;25.50;73.30;;;;;;5071950;28;20186;-82
2022/01/09 00:20:14;;;;;;;10.87;3.00;;;25.30;73.50;;;;;;5065574;28;20179;-79
2022/01/09 00:22:46;;;;;;;11.23;3.10;;;25.30;73.90;;;;;;5076972;28;20183;-84
2022/01/09 00:25:23;;;;;;;14.47;3.30;;;25.30;73.70;;;;;;5077147;28;20170;-81
2022/01/09 00:27:52;;;;;;;9.20;2.90;;;25.30;74.50;;;;;;5072466;28;20188;-78
2022/01/09 00:30:22;;;;;;;15.10;3.40;;;25.40;73.50;;;;;;5067672;28;20251;-76
2022/01/09 00:32:51;;;;;;;12.63;3.07;;;25.50;73.80;;;;;;5069390;28;20681;-81
2022/01/09 00:35:18;;;;;;;8.70;2.77;;;25.90;73.10;;;;;;5072977;28;20175;-85
2022/01/09 00:37:46;;;;;;;10.13;2.40;;;25.90;71.80;;;;;;5073403;28;20223;-76
2022/01/09 00:40:15;;;;;;;15.53;3.57;;;26.00;71.30;;;;;;5073563;28;20557;-82
2022/01/09 00:42:42;;;;;;;9.73;2.93;;;25.80;72.30;;;;;;5078066;28;20189;-76
2022/01/09 00:45:12;;;;;;;12.63;3.30;;;25.70;72.90;;;;;;5082407;28;20190;-75
2022/01/09 00:47:39;;;;;;;11.00;2.90;;;25.70;72.80;;;;;;5080117;28;20171;-75
2022/01/09 00:50:08;;;;;;;9.23;2.70;;;25.80;73.20;;;;;;5072912;28;20619;-77
2022/01/09 00:52:36;;;;;;;12.10;2.50;;;25.70;72.80;;;;;;5073961;28;20719;-75
2022/01/09 00:55:07;;;;;;;11.17;2.90;;;25.50;73.30;;;;;;5079223;28;20511;-75
2022/01/09 00:57:35;;;;;;;11.23;3.40;;;25.40;74.00;;;;;;5071935;28;20597;-78
2022/01/09 01:00:05;;;;;;;11.73;2.93;;;25.50;73.50;;;;;;5077227;28;20176;-77
2022/01/09 01:02:32;;;;;;;15.67;3.40;;;25.60;73.40;;;;;;5078031;28;20205;-79
2022/01/09 01:04:59;;;;;;;17.40;3.63;;;25.80;73.30;;;;;;5073751;28;20180;-77
2022/01/09 01:07:28;;;;;;;12.30;3.20;;;26.00;72.30;;;;;;5071646;28;20182;-79
2022/01/09 01:09:57;;;;;;;10.93;3.13;;;25.90;72.40;;;;;;5070122;28;20190;-84
2022/01/09 01:12:29;;;;;;;13.33;3.17;;;25.90;72.10;;;;;;5071509;28;20218;-76
2022/01/09 01:14:57;;;;;;;9.67;3.10;;;25.90;72.50;;;;;;5071530;28;20171;-80
2022/01/09 01:17:25;;;;;;;10.03;3.13;;;25.80;72.60;;;;;;5079243;28;20173;-78
2022/01/09 01:19:54;;;;;;;12.07;2.73;;;25.50;73.80;;;;;;5072136;28;20679;-79
2022/01/09 01:22:23;;;;;;;10.80;2.83;;;25.40;74.10;;;;;;5073935;28;20237;-77
2022/01/09 01:24:52;;;;;;;15.80;3.20;;;25.30;74.50;;;;;;5075348;28;20179;-75
2022/01/09 01:27:19;;;;;;;8.80;2.83;;;25.10;74.90;;;;;;5068670;28;20182;-77
2022/01/09 01:29:46;;;;;;;11.17;3.00;;;25.10;75.20;;;;;;5073749;28;20183;-76
2022/01/09 01:32:14;;;;;;;11.57;3.20;;;24.90;75.90;;;;;;5082778;28;20202;-79
2022/01/09 01:34:41;;;;;;;12.33;3.10;;;25.00;75.90;;;;;;5078738;28;20274;-75
2022/01/09 01:37:09;;;;;;;17.47;3.60;;;25.00;75.60;;;;;;5076074;28;20621;-76
2022/01/09 01:39:36;;;;;;;12.67;3.40;;;25.00;75.60;;;;;;5075533;28;20183;-73
2022/01/09 01:42:04;;;;;;;13.10;3.77;;;25.10;75.70;;;;;;5071151;28;20715;-76
2022/01/09 01:44:45;;;;;;;15.53;4.17;;;24.90;75.60;;;;;;5078506;28;20532;-78
2022/01/09 01:47:14;;;;;;;18.40;3.97;;;24.70;76.30;;;;;;5066615;28;20198;-78
2022/01/09 01:49:42;;;;;;;16.20;4.13;;;24.30;77.40;;;;;;5074799;28;20650;-77
2022/01/09 01:52:10;;;;;;;11.00;3.70;;;24.30;77.90;;;;;;5075521;28;20685;-76
2022/01/09 01:54:42;;;;;;;11.97;4.10;;;24.30;78.20;;;;;;5071855;28;20266;-75
2022/01/09 01:57:10;;;;;;;13.67;4.37;;;24.30;78.20;;;;;;5072295;28;20694;-75
2022/01/09 01:59:37;;;;;;;14.77;3.50;;;24.20;78.60;;;;;;5074630;28;20171;-76
2022/01/09 02:02:05;;;;;;;14.90;4.17;;;24.20;78.80;;;;;;5073454;28;20286;-75
2022/01/09 02:04:33;;;;;;;16.90;5.00;;;24.10;79.50;;;;;;5076432;28;20677;-77
2022/01/09 02:07:02;;;;;;;14.77;4.20;;;24.10;80.00;;;;;;5069165;28;20202;-75
2022/01/09 02:09:30;;;;;;;15.80;5.57;;;24.00;80.40;;;;;;5068952;28;20219;-79
2022/01/09 02:12:00;;;;;;;13.07;4.37;;;24.00;82.00;;;;;;5073439;28;20290;-75
2022/01/09 02:14:27;;;;;;;10.60;4.07;;;24.10;83.10;;;;;;5073357;28;20179;-77
2022/01/09 02:16:55;;;;;;;13.40;4.23;;;24.10;83.50;;;;;;5075799;28;20183;-78
2022/01/09 02:19:23;;;;;;;15.27;4.83;;;23.90;83.40;;;;;;5076062;28;20218;-77
2022/01/09 02:21:51;;;;;;;27.47;6.70;;;23.80;83.60;;;;;;5082301;28;20186;-77
2022/01/09 02:24:22;;;;;;;12.77;4.77;;;23.80;84.50;;;;;;5071565;28;20195;-76
2022/01/09 02:26:50;;;;;;;17.80;7.70;;;23.70;84.50;;;;;;5067899;28;20180;-76
2022/01/09 02:29:18;;;;;;;18.17;7.43;;;23.70;85.10;;;;;;5068683;28;20202;-76
2022/01/09 02:31:46;;;;;;;15.07;4.60;;;23.70;85.60;;;;;;5071816;28;20242;-78
2022/01/09 02:34:14;;;;;;;14.03;4.67;;;23.50;84.90;;;;;;5072993;28;20184;-80
2022/01/09 02:36:42;;;;;;;13.53;5.10;;;23.70;85.00;;;;;;5054382;28;20199;-80
2022/01/09 02:39:12;;;;;;;13.70;5.10;;;23.70;84.80;;;;;;5071095;28;20550;-75
2022/01/09 02:41:39;;;;;;;16.87;5.03;;;23.90;85.40;;;;;;5051413;28;20708;-76
2022/01/09 02:44:14;;;;;;;18.47;5.40;;;24.00;84.20;;;;;;5070564;28;20669;-78
2022/01/09 02:46:57;;;;;;;12.10;4.57;;;24.00;83.60;;;;;;5071943;28;20227;-76
2022/01/09 02:49:27;;;;;;;15.97;4.37;;;24.10;83.30;;;;;;5063223;28;20184;-76
2022/01/09 02:51:54;;;;;;;18.20;5.10;;;24.20;82.60;;;;;;5071201;28;20207;-76
2022/01/09 02:57:08;;;;;;;9.93;4.83;;;24.20;82.20;;;;;;5070936;28;20189;-76
2022/01/09 02:59:35;;;;;;;14.63;5.27;;;24.10;82.10;;;;;;5071628;28;20281;-76
2022/01/09 03:02:07;;;;;;;13.87;4.43;;;24.00;81.80;;;;;;5070678;28;20221;-76
2022/01/09 03:04:38;;;;;;;18.43;5.20;;;23.90;82.40;;;;;;5067441;28;20237;-76
2022/01/09 03:07:06;;;;;;;10.17;4.20;;;23.90;81.40;;;;;;5066425;28;20211;-77
2022/01/09 03:09:34;;;;;;;12.90;5.03;;;23.90;81.30;;;;;;5054629;28;20183;-75
2022/01/09 03:12:01;;;;;;;13.60;4.80;;;24.00;81.50;;;;;;5071210;28;20268;-77
2022/01/09 03:14:28;;;;;;;17.50;4.80;;;24.10;80.90;;;;;;5069150;28;20240;-76
2022/01/09 03:16:56;;;;;;;15.50;4.00;;;24.30;80.50;;;;;;5068884;28;20183;-76
2022/01/09 03:19:23;;;;;;;13.97;4.50;;;24.70;79.30;;;;;;5067014;28;20198;-78
2022/01/09 03:21:51;;;;;;;13.07;3.87;;;24.90;78.00;;;;;;5068110;28;20194;-77
2022/01/09 03:24:18;;;;;;;11.67;4.33;;;25.10;77.30;;;;;;5067806;28;20203;-76
2022/01/09 03:26:47;;;;;;;11.13;4.23;;;25.30;76.30;;;;;;5090867;28;20687;-76
2022/01/09 03:29:16;;;;;;;12.93;3.80;;;25.30;76.60;;;;;;5070928;28;20193;-78
2022/01/09 03:31:43;;;;;;;11.37;3.70;;;25.30;75.90;;;;;;5069660;28;20260;-79
2022/01/09 03:34:10;;;;;;;11.20;4.13;;;25.30;76.20;;;;;;5067739;28;20290;-77
2022/01/09 03:36:38;;;;;;;12.67;4.33;;;25.20;76.60;;;;;;5070296;28;20747;-78
2022/01/09 03:39:05;;;;;;;12.83;3.90;;;25.00;76.80;;;;;;5070789;28;20206;-77
2022/01/09 03:41:33;;;;;;;13.17;4.50;;;25.00;77.30;;;;;;5067539;28;20329;-75
2022/01/09 03:44:01;;;;;;;11.77;3.90;;;25.00;77.30;;;;;;5071561;28;20658;-76
2022/01/09 03:46:31;;;;;;;9.50;3.80;;;25.00;77.30;;;;;;5071982;28;20270;-75
2022/01/09 03:49:00;;;;;;;13.03;4.07;;;25.10;77.50;;;;;;5077555;28;20550;-75
2022/01/09 03:51:36;;;;;;;12.70;3.90;;;25.20;76.70;;;;;;5071420;28;20201;-76
2022/01/09 03:54:08;;;;;;;8.53;3.40;;;25.30;76.80;;;;;;5075810;28;20250;-75
2022/01/09 03:56:35;;;;;;;14.07;4.00;;;25.50;75.90;;;;;;5092245;28;20183;-76
2022/01/09 03:59:03;;;;;;;11.60;4.13;;;25.60;76.10;;;;;;5071711;28;20256;-77
2022/01/09 04:01:30;;;;;;;10.93;3.57;;;25.80;75.70;;;;;;5073239;28;20211;-77
2022/01/09 04:03:58;;;;;;;11.17;3.60;;;25.70;75.60;;;;;;5073059;28;20191;-80
2022/01/09 04:06:25;;;;;;;13.10;4.20;;;26.00;74.70;;;;;;5072866;28;20191;-76
2022/01/09 04:08:53;;;;;;;10.87;3.40;;;26.10;74.40;;;;;;5073010;28;20733;-77
2022/01/09 04:11:28;;;;;;;8.70;2.90;;;25.90;74.30;;;;;;5072865;28;20203;-77
2022/01/09 04:13:55;;;;;;;11.90;3.43;;;25.80;75.00;;;;;;5072950;28;20220;-77
2022/01/09 04:16:23;;;;;;;6.27;2.40;;;26.00;74.50;;;;;;5072939;28;20202;-77
2022/01/09 04:18:50;;;;;;;10.10;3.17;;;26.80;72.40;;;;;;5072801;28;20225;-75
2022/01/09 04:21:18;;;;;;;5.73;3.10;;;27.20;70.60;;;;;;5071688;28;20187;-76
2022/01/09 04:23:45;;;;;;;11.03;3.17;;;27.30;69.80;;;;;;5072721;28;20699;-74
2022/01/09 04:26:13;;;;;;;8.70;2.60;;;27.20;70.00;;;;;;5065397;28;20195;-80
2022/01/09 04:28:40;;;;;;;6.87;2.30;;;27.00;70.20;;;;;;5072721;28;20225;-79
2022/01/09 04:31:12;;;;;;;7.37;2.77;;;26.90;69.60;;;;;;5062555;28;20187;-86
2022/01/09 04:33:40;;;;;;;7.27;2.13;;;26.50;70.50;;;;;;5073095;28;20728;-78
2022/01/09 04:36:07;;;;;;;9.77;2.50;;;26.40;71.30;;;;;;5072590;28;20247;-80
2022/01/09 04:38:34;;;;;;;7.23;2.50;;;26.70;70.40;;;;;;5072742;28;20234;-80
2022/01/09 04:41:02;;;;;;;8.00;2.33;;;26.80;69.80;;;;;;5071812;28;20203;-83
2022/01/09 04:43:29;;;;;;;10.70;2.80;;;26.90;69.60;;;;;;5072631;28;20229;-76
2022/01/09 04:45:57;;;;;;;10.77;2.30;;;26.90;70.00;;;;;;5072624;28;20187;-80
2022/01/09 04:48:25;;;;;;;7.83;2.47;;;27.20;69.50;;;;;;5074713;28;20183;-82
2022/01/09 04:50:53;;;;;;;10.37;2.50;;;27.60;67.50;;;;;;5079469;28;20181;-78
2022/01/09 04:53:21;;;;;;;10.50;3.40;;;27.70;67.30;;;;;;5068579;28;20688;-83
2022/01/09 04:55:50;;;;;;;13.43;3.20;;;27.90;67.10;;;;;;5067943;28;20289;-82
2022/01/09 04:58:18;;;;;;;9.20;2.60;;;27.80;66.70;;;;;;5072558;28;20191;-78
2022/01/09 05:00:46;;;;;;;6.77;2.53;;;27.20;69.50;;;;;;5069744;28;20175;-80
2022/01/09 05:03:15;;;;;;;7.67;2.80;;;27.10;69.10;;;;;;5074387;28;20206;-80
2022/01/09 05:05:42;;;;;;;9.40;2.83;;;27.20;68.80;;;;;;5074685;28;20269;-77
2022/01/09 05:08:10;;;;;;;12.03;3.00;;;27.50;67.80;;;;;;5076018;28;20171;-78
2022/01/09 05:10:37;;;;;;;9.73;2.40;;;27.80;67.20;;;;;;5074960;28;20236;-76
2022/01/09 05:13:04;;;;;;;7.93;2.30;;;27.90;66.90;;;;;;5076751;28;20210;-78
2022/01/09 05:15:32;;;;;;;8.43;2.50;;;27.80;67.10;;;;;;5075878;28;20179;-80
2022/01/09 05:18:01;;;;;;;8.80;2.77;;;27.30;68.20;;;;;;5071812;28;20630;-78
2022/01/09 05:20:29;;;;;;;11.00;2.37;;;27.00;69.30;;;;;;5075958;28;20182;-76
2022/01/09 05:22:56;;;;;;;7.43;2.60;;;26.80;70.20;;;;;;5077407;28;20179;-79
2022/01/09 05:25:24;;;;;;;13.13;2.63;;;27.00;70.10;;;;;;5076651;28;20229;-77
2022/01/09 05:27:51;;;;;;;9.73;2.17;;;26.90;69.80;;;;;;5080430;28;20185;-76
2022/01/09 05:30:18;;;;;;;5.17;2.03;;;27.10;69.50;;;;;;5076515;28;20180;-79
2022/01/09 05:32:45;;;;;;;6.40;2.13;;;26.90;70.30;;;;;;5073919;28;20271;-74
2022/01/09 05:35:13;;;;;;;8.07;2.40;;;26.70;71.20;;;;;;5075855;28;20224;-79
2022/01/09 05:37:41;;;;;;;9.63;2.17;;;26.50;71.50;;;;;;5074308;28;20219;-78
2022/01/09 05:40:10;;;;;;;6.80;2.63;;;26.10;72.50;;;;;;5074556;28;20179;-81
2022/01/09 05:42:37;;;;;;;7.13;2.33;;;25.90;73.70;;;;;;5075048;28;20274;-81
2022/01/09 05:45:07;;;;;;;10.93;2.60;;;25.80;74.10;;;;;;5075091;28;20653;-77
2022/01/09 05:47:35;;;;;;;8.00;2.47;;;25.80;74.60;;;;;;5075808;28;20267;-78
2022/01/09 05:50:04;;;;;;;10.00;2.53;;;25.80;74.30;;;;;;5071496;28;20183;-79
2022/01/09 05:52:31;;;;;;;8.07;1.77;;;25.80;74.40;;;;;;5071971;28;20908;-78
2022/01/09 05:54:58;;;;;;;11.10;2.57;;;25.70;75.00;;;;;;5072585;28;20270;-80
2022/01/09 05:57:26;;;;;;;9.40;2.70;;;25.90;74.20;;;;;;5070182;28;20231;-79
2022/01/09 05:59:53;;;;;;;8.90;4.13;;;26.00;73.70;;;;;;5075043;28;20183;-78
2022/01/09 06:02:20;;;;;;;6.50;2.67;;;25.80;73.90;;;;;;5079140;28;20193;-79
2022/01/09 06:04:48;;;;;;;16.00;3.03;;;25.70;74.00;;;;;;5073793;28;20243;-82
2022/01/09 06:07:15;;;;;;;10.33;2.30;;;25.80;74.20;;;;;;5074820;28;20237;-78
2022/01/09 06:09:44;;;;;;;8.20;2.10;;;25.80;73.00;;;;;;5074701;28;20183;-79
2022/01/09 06:12:11;;;;;;;12.07;2.13;;;25.70;73.60;;;;;;5068681;28;20207;-78
2022/01/09 06:14:39;;;;;;;6.27;1.77;;;25.80;73.70;;;;;;5073487;28;20190;-79
2022/01/09 06:17:06;;;;;;;6.27;2.00;;;26.10;73.20;;;;;;5073000;28;20185;-79
2022/01/09 06:19:33;;;;;;;7.87;2.47;;;26.70;71.00;;;;;;5078205;28;20624;-77
2022/01/09 06:22:01;;;;;;;9.03;2.47;;;26.80;70.80;;;;;;5077420;28;20291;-79
2022/01/09 06:24:28;;;;;;;4.13;1.93;;;27.10;70.20;;;;;;5074792;28;20258;-76
2022/01/09 06:26:55;;;;;;;10.77;2.20;;;27.70;68.20;;;;;;5074567;28;20186;-80
2022/01/09 06:29:23;;;;;;;7.47;2.50;;;28.80;64.90;;;;;;5074129;28;20179;-80
2022/01/09 06:31:50;;;;;;;5.60;2.13;;;28.70;64.70;;;;;;5068476;28;20226;-80
2022/01/09 06:34:21;;;;;;;8.00;2.17;;;27.90;66.80;;;;;;5074690;28;20194;-79
2022/01/09 06:36:51;;;;;;;8.97;2.40;;;27.00;69.30;;;;;;5078173;28;20286;-84
2022/01/09 06:39:19;;;;;;;6.00;2.30;;;26.70;70.90;;;;;;5083377;28;20187;-79
2022/01/09 06:41:46;;;;;;;7.80;2.60;;;26.50;71.90;;;;;;5077966;28;20585;-79
2022/01/09 06:44:13;;;;;;;11.37;2.30;;;26.70;71.70;;;;;;5082971;28;20189;-76
2022/01/09 06:46:41;;;;;;;6.13;2.37;;;26.80;71.60;;;;;;5076718;28;20241;-85
2022/01/09 06:49:08;;;;;;;7.33;2.13;;;26.70;71.90;;;;;;5073847;28;20272;-75
2022/01/09 06:51:36;;;;;;;6.00;2.30;;;26.40;72.30;;;;;;5074070;28;20167;-85
2022/01/09 06:54:04;;;;;;;17.53;5.40;;;26.30;73.00;;;;;;5074709;28;20634;-82
2022/01/09 06:56:32;;;;;;;10.00;3.67;;;26.10;73.10;;;;;;5075301;28;20506;-78
2022/01/09 06:58:59;;;;;;;14.83;3.13;;;26.00;74.10;;;;;;5074205;28;20199;-80
2022/01/09 07:01:27;;;;;;;6.83;2.33;;;25.90;74.30;;;;;;5078103;28;20174;-79
2022/01/09 07:03:54;;;;;;;6.47;2.30;;;25.60;75.10;;;;;;5084531;28;20186;-79
2022/01/09 07:06:21;;;;;;;6.37;1.90;;;25.40;76.10;;;;;;5074256;28;20187;-76
2022/01/09 07:08:49;;;;;;;8.87;2.50;;;25.40;76.40;;;;;;5080797;28;20235;-79
2022/01/09 07:11:18;;;;;;;7.17;2.20;;;25.50;76.20;;;;;;5073953;28;20673;-86
2022/01/09 07:13:45;;;;;;;10.23;2.70;;;25.60;75.70;;;;;;5073763;28;20203;-80
2022/01/09 07:16:12;;;;;;;9.20;2.37;;;25.50;76.20;;;;;;5073916;28;20180;-83
2022/01/09 07:18:40;;;;;;;11.67;2.67;;;25.30;76.50;;;;;;5081678;28;20171;-81
2022/01/09 07:21:07;;;;;;;8.93;2.57;;;25.30;76.90;;;;;;5077259;28;20529;-82
2022/01/09 07:23:35;;;;;;;11.73;4.50;;;25.20;77.10;;;;;;5081437;28;20224;-88
2022/01/09 07:26:02;;;;;;;13.87;4.07;;;25.10;77.60;;;;;;5069479;28;20190;-79
2022/01/09 07:28:29;;;;;;;6.93;3.47;;;24.90;78.20;;;;;;5075979;28;20673;-77
2022/01/09 07:30:58;;;;;;;10.37;2.90;;;24.90;78.50;;;;;;5066694;28;20194;-79
2022/01/09 07:33:26;;;;;;;10.83;2.80;;;24.90;78.60;;;;;;5073899;28;20203;-85
2022/01/09 07:35:53;;;;;;;9.37;2.53;;;24.80;78.70;;;;;;5075474;28;20170;-79
2022/01/09 07:38:20;;;;;;;7.67;2.30;;;24.80;78.80;;;;;;5074662;28;20230;-87
2022/01/09 07:40:49;;;;;;;13.23;2.57;;;24.80;79.00;;;;;;5073644;28;20180;-77
2022/01/09 07:43:16;;;;;;;10.57;2.80;;;24.80;79.40;;;;;;5076935;28;20175;-78
2022/01/09 07:45:44;;;;;;;9.50;2.37;;;24.80;79.30;;;;;;5075477;28;20185;-77
2022/01/09 07:48:15;;;;;;;9.93;2.57;;;24.90;79.10;;;;;;5069088;28;20175;-76
2022/01/09 07:50:42;;;;;;;7.23;2.83;;;24.90;79.30;;;;;;5078390;28;20624;-77
2022/01/09 07:53:10;;;;;;;9.30;2.70;;;24.90;79.40;;;;;;5067346;28;20680;-77
2022/01/09 07:55:38;;;;;;;10.17;2.60;;;24.80;79.80;;;;;;5071755;28;20179;-76
2022/01/09 07:58:05;;;;;;;7.43;3.10;;;24.80;80.00;;;;;;5070591;28;20198;-76
2022/01/09 08:00:33;;;;;;;16.47;3.23;;;24.70;80.80;;;;;;5071656;28;20171;-79
2022/01/09 08:03:00;;;;;;;9.30;2.70;;;24.60;81.10;;;;;;5072760;28;20187;-78
2022/01/09 08:05:27;;;;;;;10.80;2.63;;;24.60;81.20;;;;;;5072851;28;20190;-80
2022/01/09 08:07:55;;;;;;;13.33;2.97;;;24.40;81.70;;;;;;5072454;28;20197;-76
2022/01/09 08:10:25;;;;;;;10.10;2.77;;;24.30;82.30;;;;;;5072498;28;20172;-80
2022/01/09 08:12:52;;;;;;;7.43;2.57;;;24.30;82.80;;;;;;5075177;28;20205;-76
2022/01/09 08:15:20;;;;;;;19.80;4.20;;;24.20;84.00;;;;;;5072403;28;20626;-78
2022/01/09 08:17:49;;;;;;;9.70;3.40;;;24.10;84.50;;;;;;5072701;28;20531;-79
2022/01/09 08:20:17;;;;;;;10.73;3.10;;;24.00;84.70;;;;;;5072883;28;20179;-77
2022/01/09 08:22:45;;;;;;;15.70;3.00;;;23.90;84.80;;;;;;5072472;28;20266;-77
2022/01/09 08:25:14;;;;;;;15.57;7.87;;;24.00;84.80;;;;;;5072727;28;20171;-77
2022/01/09 08:27:43;;;;;;;18.37;10.87;;;23.90;84.80;;;;;;5073214;28;20182;-79
2022/01/09 08:30:12;;;;;;;12.70;3.33;;;23.90;85.00;;;;;;5064321;28;20175;-78
2022/01/09 08:32:40;;;;;;;14.30;3.00;;;23.80;85.10;;;;;;5073483;28;20668;-76
2022/01/09 08:35:08;;;;;;;13.83;3.17;;;23.80;85.30;;;;;;5075244;28;20175;-78
2022/01/09 08:37:36;;;;;;;10.83;3.07;;;23.80;85.80;;;;;;5084012;28;20230;-76
2022/01/09 08:40:04;;;;;;;7.97;3.13;;;23.80;86.60;;;;;;5075052;28;20656;-76
2022/01/09 08:42:32;;;;;;;9.23;3.40;;;23.70;87.40;;;;;;5079518;28;20182;-80
2022/01/09 08:44:59;;;;;;;8.50;3.00;;;23.70;87.90;;;;;;5072813;28;20581;-76
2022/01/09 08:47:26;;;;;;;19.17;3.83;;;23.60;87.90;;;;;;5070800;28;20175;-75
2022/01/09 08:49:54;;;;;;;12.63;3.70;;;23.60;88.40;;;;;;5071347;28;20178;-76
2022/01/09 08:52:21;;;;;;;9.70;3.57;;;23.50;88.20;;;;;;5073836;28;20281;-76
2022/01/09 08:54:50;;;;;;;15.87;3.87;;;23.50;88.40;;;;;;5072553;28;20186;-75
2022/01/09 08:57:18;;;;;;;11.00;3.60;;;23.50;88.80;;;;;;5070244;28;20664;-77
2022/01/09 08:59:45;;;;;;;10.57;3.93;;;23.50;88.50;;;;;;5071759;28;20183;-76
2022/01/09 09:02:13;;;;;;;12.57;3.60;;;23.50;88.50;;;;;;5078546;28;20532;-78
2022/01/09 09:04:40;;;;;;;14.63;3.77;;;23.40;89.00;;;;;;5072428;28;20175;-80
2022/01/09 09:07:08;;;;;;;10.70;3.73;;;23.30;88.70;;;;;;5073024;28;20638;-77
2022/01/09 09:09:37;;;;;;;15.03;3.70;;;23.30;88.50;;;;;;5073468;28;20236;-77
2022/01/09 09:12:05;;;;;;;15.37;4.10;;;23.30;88.70;;;;;;5074353;28;20203;-77
2022/01/09 09:14:32;;;;;;;13.67;3.40;;;23.30;88.80;;;;;;5070897;28;20197;-78
2022/01/09 09:16:59;;;;;;;11.03;3.83;;;23.30;88.90;;;;;;5072464;28;20559;-79
2022/01/09 09:19:27;;;;;;;13.20;3.53;;;23.20;88.80;;;;;;5072377;28;20659;-77
2022/01/09 09:21:54;;;;;;;13.03;3.43;;;23.20;89.20;;;;;;5073630;28;20172;-78
2022/01/09 09:24:21;;;;;;;8.30;3.70;;;23.20;89.20;;;;;;5071980;28;20175;-77
2022/01/09 09:26:52;;;;;;;8.93;3.47;;;23.20;89.30;;;;;;5072615;28;20189;-77
2022/01/09 09:29:19;;;;;;;16.13;4.67;;;23.20;90.00;;;;;;5071919;28;20180;-79
2022/01/09 09:31:47;;;;;;;11.13;3.93;;;23.20;90.20;;;;;;5062918;28;20290;-78
2022/01/09 09:34:14;;;;;;;8.40;3.80;;;23.20;90.50;;;;;;5075888;28;20524;-79
2022/01/09 09:36:41;;;;;;;9.67;4.40;;;23.10;90.50;;;;;;5071979;28;20228;-80
2022/01/09 09:39:09;;;;;;;17.00;4.77;;;23.00;91.00;;;;;;5071398;28;20226;-80
2022/01/09 09:41:38;;;;;;;13.90;3.63;;;23.00;90.80;;;;;;5077619;28;20206;-80
2022/01/09 09:44:08;;;;;;;20.60;4.77;;;23.10;91.00;;;;;;5072080;28;20187;-79
2022/01/09 09:46:37;;;;;;;14.97;4.07;;;23.00;91.00;;;;;;5071715;28;20684;-78
2022/01/09 09:49:04;;;;;;;13.03;3.47;;;23.00;91.30;;;;;;5078826;28;20866;-78
2022/01/09 09:51:32;;;;;;;12.43;3.37;;;23.10;91.20;;;;;;5065614;28;20266;-82
2022/01/09 09:54:00;;;;;;;12.03;3.63;;;23.10;91.20;;;;;;5073026;28;20223;-78
2022/01/09 09:56:27;;;;;;;12.80;3.47;;;23.10;91.40;;;;;;5079137;28;20307;-80
2022/01/09 09:58:59;;;;;;;13.10;3.57;;;23.00;91.40;;;;;;5074757;28;20178;-78
2022/01/09 10:01:32;;;;;;;12.90;3.73;;;23.10;91.60;;;;;;5075767;28;20183;-79
2022/01/09 10:04:10;;;;;;;16.53;3.50;;;23.10;91.60;;;;;;5077675;28;20183;-79
2022/01/09 10:06:49;;;;;;;16.73;3.70;;;23.10;91.60;;;;;;5077145;28;20198;-79
2022/01/09 10:09:19;;;;;;;17.30;3.90;;;23.10;91.50;;;;;;5078509;28;20175;-79
2022/01/09 10:11:49;;;;;;;13.03;3.60;;;23.10;91.20;;;;;;5088568;28;20198;-76
2022/01/09 10:14:25;;;;;;;14.17;3.60;;;23.10;91.30;;;;;;5059685;28;20654;-78
2022/01/09 10:17:19;;;;;;;10.57;4.03;;;23.10;91.30;;;;;;5066511;28;20179;-77
2022/01/09 10:20:12;;;;;;;17.13;3.90;;;23.10;91.30;;;;;;5075476;28;20175;-79
2022/01/09 10:22:51;;;;;;;10.00;3.10;;;23.10;91.50;;;;;;5075387;28;20182;-78
2022/01/09 10:25:26;;;;;;;12.43;3.77;;;23.10;91.40;;;;;;5075201;28;20224;-78
2022/01/09 10:28:08;;;;;;;12.63;3.60;;;23.10;91.40;;;;;;5064847;28;20187;-77
2022/01/09 10:30:41;;;;;;;9.40;3.60;;;23.00;91.50;;;;;;5079639;28;20171;-78
2022/01/09 10:33:12;;;;;;;12.83;3.60;;;23.00;91.50;;;;;;5079828;28;20680;-78
2022/01/09 10:35:42;;;;;;;13.50;3.73;;;23.10;91.60;;;;;;5079243;28;20194;-78
2022/01/09 10:38:17;;;;;;;14.13;3.40;;;23.10;91.60;;;;;;5072014;28;20223;-78
2022/01/09 10:40:52;;;;;;;11.17;3.60;;;23.10;91.40;;;;;;5085674;28;20179;-78
2022/01/09 10:43:21;;;;;;;12.77;3.67;;;23.00;91.40;;;;;;5078667;28;20553;-77
2022/01/09 10:46:01;;;;;;;10.77;3.67;;;23.10;91.30;;;;;;5068845;28;20266;-77
2022/01/09 10:48:40;;;;;;;11.43;3.53;;;23.00;91.40;;;;;;5066908;28;20178;-77
2022/01/09 10:51:10;;;;;;;16.30;3.60;;;23.00;91.30;;;;;;5072840;28;20174;-76
2022/01/09 10:53:39;;;;;;;15.63;3.60;;;23.00;91.10;;;;;;5073707;28;20294;-78
2022/01/09 10:56:20;;;;;;;14.73;3.97;;;23.00;91.30;;;;;;5071397;28;20632;-78
2022/01/09 10:58:50;;;;;;;13.80;3.97;;;23.00;91.10;;;;;;5069296;28;20179;-78
2022/01/09 11:01:25;;;;;;;17.87;3.60;;;23.10;90.90;;;;;;5068572;28;20207;-78
2022/01/09 11:03:58;;;;;;;14.20;3.70;;;23.10;90.80;;;;;;5063374;28;20180;-78
2022/01/09 11:06:30;;;;;;;17.33;3.70;;;23.00;90.90;;;;;;5071745;28;20183;-78
2022/01/09 11:08:58;;;;;;;8.17;3.33;;;23.00;91.10;;;;;;5065768;28;20236;-78
2022/01/09 11:13:55;;;;;;;14.83;3.97;;;23.00;91.10;;;;;;5071559;28;20211;-78
2022/01/09 11:16:42;;;;;;;9.83;3.43;;;23.00;91.20;;;;;;5068532;28;20171;-78
2022/01/09 11:19:15;;;;;;;18.50;4.20;;;23.00;91.00;;;;;;5064233;28;20270;-78
2022/01/09 11:21:55;;;;;;;14.43;4.17;;;23.10;91.20;;;;;;5066294;28;20183;-77
2022/01/09 11:24:40;;;;;;;13.73;4.27;;;23.10;91.00;;;;;;5068325;28;20205;-79
2022/01/09 11:27:38;;;;;;;15.03;4.50;;;23.10;90.90;;;;;;5071782;28;20244;-78
2022/01/09 11:30:20;;;;;;;11.33;3.40;;;23.10;91.00;;;;;;5070423;28;20203;-79
2022/01/09 11:33:13;;;;;;;13.53;4.10;;;23.10;91.00;;;;;;5068128;28;20214;-79
2022/01/09 11:35:40;;;;;;;13.10;3.77;;;23.10;91.00;;;;;;5066817;28;20262;-79
2022/01/09 11:38:27;;;;;;;13.20;3.60;;;23.10;90.90;;;;;;5073146;28;20693;-78
2022/01/09 11:40:54;;;;;;;18.07;4.07;;;23.10;90.80;;;;;;5073283;28;21042;-78
2022/01/09 11:43:22;;;;;;;20.27;4.13;;;23.10;90.70;;;;;;5087211;28;20190;-77
2022/01/09 11:46:03;;;;;;;12.20;3.87;;;23.10;90.80;;;;;;5085847;28;20179;-80
2022/01/09 11:49:06;;;;;;;12.70;3.70;;;23.10;90.80;;;;;;5071423;28;20183;-78
2022/01/09 11:51:35;;;;;;;11.53;3.67;;;23.10;90.90;;;;;;5042951;28;20195;-77
2022/01/09 11:54:10;;;;;;;12.83;3.90;;;23.10;90.90;;;;;;5061956;28;20271;-77
2022/01/09 11:56:53;;;;;;;15.80;3.70;;;23.10;90.80;;;;;;5065253;28;20175;-77
2022/01/09 11:59:31;;;;;;;14.80;4.27;;;23.10;90.90;;;;;;5065623;28;20194;-76
2022/01/09 12:02:04;;;;;;;18.23;4.30;;;23.10;90.70;;;;;;5073374;28;20183;-77
2022/01/09 12:04:38;;;;;;;16.17;3.47;;;23.10;90.60;;;;;;5066430;28;20188;-75
2022/01/09 12:07:41;;;;;;;12.07;3.40;;;23.10;90.70;;;;;;5072546;28;20229;-77
2022/01/09 12:10:18;;;;;;;14.37;3.93;;;23.00;90.60;;;;;;5068395;28;20293;-77
2022/01/09 12:12:46;;;;;;;16.43;3.80;;;23.00;90.70;;;;;;5071502;28;20191;-76
2022/01/09 12:15:14;;;;;;;12.97;3.90;;;23.00;90.80;;;;;;5072299;28;20194;-75
2022/01/09 12:17:43;;;;;;;15.53;3.43;;;23.00;90.80;;;;;;5072718;28;20179;-76
2022/01/09 12:20:14;;;;;;;16.23;4.23;;;22.90;90.70;;;;;;5064839;28;20216;-76
2022/01/09 12:22:48;;;;;;;11.40;3.43;;;22.90;91.00;;;;;;5069391;28;20179;-76
2022/01/09 12:25:25;;;;;;;15.57;3.47;;;22.90;91.00;;;;;;5066020;28;20262;-77
2022/01/09 12:28:11;;;;;;;10.90;3.37;;;22.90;91.00;;;;;;5065730;28;20179;-77
2022/01/09 12:30:40;;;;;;;15.63;3.47;;;22.90;91.00;;;;;;5061250;28;20186;-77
2022/01/09 12:33:18;;;;;;;12.40;3.70;;;22.90;90.80;;;;;;5071987;28;20681;-77
2022/01/09 12:35:46;;;;;;;14.53;3.77;;;22.90;91.00;;;;;;5072078;28;20179;-77
2022/01/09 12:38:23;;;;;;;20.73;4.30;;;22.90;91.00;;;;;;5072482;28;20553;-77
2022/01/09 12:40:57;;;;;;;12.63;4.70;;;22.90;91.00;;;;;;5072192;28;20175;-78
2022/01/09 12:43:26;;;;;;;13.57;3.60;;;23.00;90.90;;;;;;5072773;28;20656;-75
2022/01/09 12:45:54;;;;;;;13.53;3.97;;;23.00;91.10;;;;;;5072207;28;20315;-75
2022/01/09 12:48:31;;;;;;;18.17;3.67;;;23.00;91.10;;;;;;5069619;28;20202;-75
2022/01/09 12:51:10;;;;;;;11.50;3.80;;;23.00;91.20;;;;;;5072291;28;20182;-76
2022/01/09 12:53:45;;;;;;;14.87;4.00;;;23.00;91.10;;;;;;5069517;28;20250;-76
2022/01/09 12:56:24;;;;;;;15.50;3.83;;;23.00;91.00;;;;;;5062247;28;20571;-76
2022/01/09 12:58:56;;;;;;;16.40;4.10;;;23.00;91.10;;;;;;5075607;28;20187;-77